4N2 weather

Middlesex Valley Airport
Middlesex, New York, United States

Public forecast

Using degrees Fahrenheit for public forecast. Weather courtesy of forecast.io.

Closest aviation weather report (METAR) to Middlesex Valley Airport

Closest report is Penn Yan Airport, 10.7 nm (19.9 km) ESE. Retrieved 2019/10/22 09:00 UTC (44 minutes ago):

KPEO 220900Z AUTO 18011G18KT 10SM BKN026 15/09 A2991 RMK AO2 T01500094

Closest aviation forecast (TAF) to Middlesex Valley Airport

Closest forecast is Greater Rochester International Airport, 30.1 nm (55.8 km) NW. Retrieved 2019/10/22 06:42 UTC (3 hours ago):

TAF KROC 220541Z 2206/2306 16015G23KT P6SM OVC150 WS015/17045KT FM220800 17014G21KT P6SM OVC090 WS015/19045KT FM221200 17012G20KT P6SM OVC060 FM221400 17013G20KT 6SM -SHRA BR OVC040 FM221600 17011G17KT 4SM RA OVC020 FM221900 18008KT 5SM RA OVC050 FM222100 19009KT P6SM VCSH OVC070